^^
Station Historical Data
Daily Summary for April 16, 2017 Units:  Both    English   Metric
« Previous Day
Next Day »
Daily Weekly Monthly Yearly Custom
  High: Low: Average:
Temperature: 79.2 °F /  26.2 °C 54.3 °F /  12.4 °C 66.6 °F /  19.2 °C
Dew Point: 53.4 °F /  11.9 °C 48.6 °F /  9.2 °C 51.5 °F /  10.8 °C
Humidity: 85% 38% 61%
Wind Speed: 12.1mph /  19.5km/h - 1.2mph /  1.9km/h
Wind Gust: 13.0mph /  20.9km/h - -
Wind- - ESE
Pressure: 29.99 in /  1015.5 hPa 29.85 in /  1010.7 hPa -
Precipitation: 0.00 in /  0 mm    
Historical Graphs
 
 
Tabular Data for April 16, 2017
Time Temperature Dew Point Pressure Wind Wind Speed Wind Gust Humidity Rainfall Rate (Hourly) solar Conditions
00:03 63.3 °F /  17.4 °C 51.8 °F /  11 °C 29.98in /  1015.1hPa East 2.0mph /  3.2km/h 3.0mph /  4.8km/h 66% 0.00in /  0mm 0.0 W/m2
00:09 63.1 °F /  17.3 °C 51.6 °F /  10.9 °C 29.99in /  1015.5hPa ENE 4.0mph /  6.4km/h 4.0mph /  6.4km/h 66% 0.00in /  0mm 0.0 W/m2
00:16 62.8 °F /  17.1 °C 51.6 °F /  10.9 °C 29.99in /  1015.5hPa Calm   4.0mph /  6.4km/h 67% 0.00in /  0mm 0.0 W/m2
00:22 62.6 °F /  17 °C 52.0 °F /  11.1 °C 29.98in /  1015.1hPa NNE 0.9mph /  1.4km/h 4.0mph /  6.4km/h 68% 0.00in /  0mm 0.0 W/m2
00:28 62.2 °F /  16.8 °C 52.0 °F /  11.1 °C 29.98in /  1015.1hPa NE 2.0mph /  3.2km/h 5.0mph /  8km/h 69% 0.00in /  0mm 0.0 W/m2
00:34 62.1 °F /  16.7 °C 51.8 °F /  11 °C 29.98in /  1015.1hPa NE 2.0mph /  3.2km/h 3.0mph /  4.8km/h 69% 0.00in /  0mm 0.0 W/m2
00:40 61.9 °F /  16.6 °C 52.0 °F /  11.1 °C 29.98in /  1015.1hPa Calm   4.0mph /  6.4km/h 70% 0.00in /  0mm 0.0 W/m2
00:46 61.5 °F /  16.4 °C 51.6 °F /  10.9 °C 29.98in /  1015.1hPa ENE 2.9mph /  4.7km/h 3.0mph /  4.8km/h 70% 0.00in /  0mm 0.0 W/m2
00:52 61.3 °F /  16.3 °C 51.8 °F /  11 °C 29.98in /  1015.1hPa Calm   2.0mph /  3.2km/h 71% 0.00in /  0mm 0.0 W/m2
00:59 61.0 °F /  16.1 °C 52.0 °F /  11.1 °C 29.98in /  1015.1hPa SE 2.9mph /  4.7km/h 4.0mph /  6.4km/h 72% 0.00in /  0mm 0.0 W/m2
01:05 60.6 °F /  15.9 °C 51.6 °F /  10.9 °C 29.97in /  1014.8hPa Calm   3.0mph /  4.8km/h 72% 0.00in /  0mm 0.0 W/m2
01:11 60.4 °F /  15.8 °C 51.4 °F /  10.8 °C 29.97in /  1014.8hPa Calm   2.0mph /  3.2km/h 72% 0.00in /  0mm 0.0 W/m2
01:17 60.3 °F /  15.7 °C 51.6 °F /  10.9 °C 29.97in /  1014.8hPa East 2.9mph /  4.7km/h 3.0mph /  4.8km/h 73% 0.00in /  0mm 0.0 W/m2
01:23 60.1 °F /  15.6 °C 51.4 °F /  10.8 °C 29.97in /  1014.8hPa Calm   3.0mph /  4.8km/h 73% 0.00in /  0mm 0.0 W/m2
01:29 60.1 °F /  15.6 °C 51.4 °F /  10.8 °C 29.97in /  1014.8hPa Calm   2.0mph /  3.2km/h 73% 0.00in /  0mm 0.0 W/m2
01:35 59.7 °F /  15.4 °C 51.4 °F /  10.8 °C 29.97in /  1014.8hPa Calm   1.0mph /  1.6km/h 74% 0.00in /  0mm 0.0 W/m2
01:41 59.7 °F /  15.4 °C 51.8 °F /  11 °C 29.97in /  1014.8hPa Calm   2.0mph /  3.2km/h 75% 0.00in /  0mm 0.0 W/m2
01:48 59.5 °F /  15.3 °C 51.6 °F /  10.9 °C 29.96in /  1014.4hPa Calm   1.0mph /  1.6km/h 75% 0.00in /  0mm 0.0 W/m2
01:54 59.4 °F /  15.2 °C 51.8 °F /  11 °C 29.96in /  1014.4hPa Calm     76% 0.00in /  0mm 0.0 W/m2
02:00 59.2 °F /  15.1 °C 51.6 °F /  10.9 °C 29.96in /  1014.4hPa Calm   1.0mph /  1.6km/h 76% 0.00in /  0mm 0.0 W/m2
02:06 58.8 °F /  14.9 °C 51.3 °F /  10.7 °C 29.96in /  1014.4hPa Calm   2.0mph /  3.2km/h 76% 0.00in /  0mm 0.0 W/m2
02:12 58.6 °F /  14.8 °C 51.4 °F /  10.8 °C 29.96in /  1014.4hPa Calm     77% 0.00in /  0mm 0.0 W/m2
02:18 58.6 °F /  14.8 °C 51.4 °F /  10.8 °C 29.96in /  1014.4hPa Calm     77% 0.00in /  0mm 0.0 W/m2
02:24 58.5 °F /  14.7 °C 51.3 °F /  10.7 °C 29.95in /  1014.1hPa Calm     77% 0.00in /  0mm 0.0 W/m2
02:32 58.3 °F /  14.6 °C 51.1 °F /  10.6 °C 29.95in /  1014.1hPa Calm     77% 0.00in /  0mm 0.0 W/m2
02:39 57.9 °F /  14.4 °C 51.1 °F /  10.6 °C 29.95in /  1014.1hPa Calm     78% 0.00in /  0mm 0.0 W/m2
02:45 57.7 °F /  14.3 °C 51.3 °F /  10.7 °C 29.95in /  1014.1hPa Calm     79% 0.00in /  0mm 0.0 W/m2
02:51 57.6 °F /  14.2 °C 51.1 °F /  10.6 °C 29.95in /  1014.1hPa Calm     79% 0.00in /  0mm 0.0 W/m2
02:57 57.4 °F /  14.1 °C 51.3 °F /  10.7 °C 29.95in /  1014.1hPa Calm     80% 0.00in /  0mm 0.0 W/m2
03:03 57.2 °F /  14 °C 51.1 °F /  10.6 °C 29.95in /  1014.1hPa Calm     80% 0.00in /  0mm 0.0 W/m2
03:09 57.0 °F /  13.9 °C 50.9 °F /  10.5 °C 29.95in /  1014.1hPa Calm   2.0mph /  3.2km/h 80% 0.00in /  0mm 0.0 W/m2
03:15 56.8 °F /  13.8 °C 51.1 °F /  10.6 °C 29.94in /  1013.8hPa Calm   2.0mph /  3.2km/h 81% 0.00in /  0mm 0.0 W/m2
03:21 56.8 °F /  13.8 °C 51.4 °F /  10.8 °C 29.94in /  1013.8hPa Calm     82% 0.00in /  0mm 0.0 W/m2
03:28 56.7 °F /  13.7 °C 51.3 °F /  10.7 °C 29.94in /  1013.8hPa Calm     82% 0.00in /  0mm 0.0 W/m2
03:34 56.7 °F /  13.7 °C 51.3 °F /  10.7 °C 29.94in /  1013.8hPa Calm     82% 0.00in /  0mm 0.0 W/m2
03:40 56.7 °F /  13.7 °C 51.3 °F /  10.7 °C 29.94in /  1013.8hPa Calm     82% 0.00in /  0mm 0.0 W/m2
03:46 56.5 °F /  13.6 °C 51.1 °F /  10.6 °C 29.94in /  1013.8hPa Calm     82% 0.00in /  0mm 0.0 W/m2
03:52 56.5 °F /  13.6 °C 51.1 °F /  10.6 °C 29.93in /  1013.4hPa Calm   3.0mph /  4.8km/h 82% 0.00in /  0mm 0.0 W/m2
03:58 56.3 °F /  13.5 °C 51.3 °F /  10.7 °C 29.93in /  1013.4hPa East 0.9mph /  1.4km/h 2.0mph /  3.2km/h 83% 0.00in /  0mm 0.0 W/m2
04:04 56.1 °F /  13.4 °C 51.1 °F /  10.6 °C 29.93in /  1013.4hPa Calm   1.0mph /  1.6km/h 83% 0.00in /  0mm 0.0 W/m2
04:10 56.1 °F /  13.4 °C 51.1 °F /  10.6 °C 29.93in /  1013.4hPa Calm   1.0mph /  1.6km/h 83% 0.00in /  0mm 0.0 W/m2
04:16 55.9 °F /  13.3 °C 50.9 °F /  10.5 °C 29.93in /  1013.4hPa Calm   2.0mph /  3.2km/h 83% 0.00in /  0mm 0.0 W/m2
04:22 55.8 °F /  13.2 °C 50.7 °F /  10.4 °C 29.93in /  1013.4hPa Calm   1.0mph /  1.6km/h 83% 0.00in /  0mm 0.0 W/m2
04:28 55.8 °F /  13.2 °C 51.1 °F /  10.6 °C 29.93in /  1013.4hPa ESE 0.9mph /  1.4km/h 3.0mph /  4.8km/h 84% 0.00in /  0mm 0.0 W/m2
04:34 55.6 °F /  13.1 °C 50.9 °F /  10.5 °C 29.93in /  1013.4hPa Calm   1.0mph /  1.6km/h 84% 0.00in /  0mm 0.0 W/m2
04:40 55.6 °F /  13.1 °C 50.9 °F /  10.5 °C 29.93in /  1013.4hPa Calm     84% 0.00in /  0mm 0.0 W/m2
04:46 55.6 °F /  13.1 °C 50.9 °F /  10.5 °C 29.93in /  1013.4hPa Calm     84% 0.00in /  0mm 0.0 W/m2
04:52 55.6 °F /  13.1 °C 50.9 °F /  10.5 °C 29.93in /  1013.4hPa Calm     84% 0.00in /  0mm 0.0 W/m2
04:58 55.4 °F /  13 °C 50.9 °F /  10.5 °C 29.93in /  1013.4hPa Calm   1.0mph /  1.6km/h 85% 0.00in /  0mm 0.0 W/m2
05:04 55.2 °F /  12.9 °C 50.7 °F /  10.4 °C 29.93in /  1013.4hPa Calm     85% 0.00in /  0mm 0.0 W/m2
05:10 55.2 °F /  12.9 °C 50.7 °F /  10.4 °C 29.94in /  1013.8hPa East 0.9mph /  1.4km/h 2.0mph /  3.2km/h 85% 0.00in /  0mm 0.0 W/m2
05:16 55.2 °F /  12.9 °C 50.5 °F /  10.3 °C 29.94in /  1013.8hPa Calm   1.0mph /  1.6km/h 84% 0.00in /  0mm 0.0 W/m2
05:22 55.2 °F /  12.9 °C 50.5 °F /  10.3 °C 29.94in /  1013.8hPa Calm     84% 0.00in /  0mm 0.0 W/m2
05:28 55.0 °F /  12.8 °C 50.5 °F /  10.3 °C 29.94in /  1013.8hPa Calm     85% 0.00in /  0mm 0.0 W/m2
05:34 55.0 °F /  12.8 °C 50.5 °F /  10.3 °C 29.94in /  1013.8hPa Calm   1.0mph /  1.6km/h 85% 0.00in /  0mm 0.0 W/m2
05:40 54.9 °F /  12.7 °C 50.4 °F /  10.2 °C 29.95in /  1014.1hPa Calm   2.0mph /  3.2km/h 85% 0.00in /  0mm 0.0 W/m2
05:46 54.9 °F /  12.7 °C 50.4 °F /  10.2 °C 29.95in /  1014.1hPa Calm   1.0mph /  1.6km/h 85% 0.00in /  0mm 0.0 W/m2
05:52 54.9 °F /  12.7 °C 50.4 °F /  10.2 °C 29.95in /  1014.1hPa East 2.9mph /  4.7km/h 7.0mph /  11.3km/h 85% 0.00in /  0mm 0.0 W/m2
05:58 54.7 °F /  12.6 °C 50.2 °F /  10.1 °C 29.95in /  1014.1hPa Calm   1.0mph /  1.6km/h 85% 0.00in /  0mm 0.0 W/m2
06:04 54.7 °F /  12.6 °C 50.0 °F /  10 °C 29.95in /  1014.1hPa Calm   1.0mph /  1.6km/h 84% 0.00in /  0mm 0.0 W/m2
06:10 54.5 °F /  12.5 °C 49.8 °F /  9.9 °C 29.95in /  1014.1hPa East 0.9mph /  1.4km/h 1.0mph /  1.6km/h 84% 0.00in /  0mm 5.0 W/m2
06:16 54.5 °F /  12.5 °C 49.8 °F /  9.9 °C 29.95in /  1014.1hPa Calm   3.0mph /  4.8km/h 84% 0.00in /  0mm 7.0 W/m2
06:23 54.3 °F /  12.4 °C 49.6 °F /  9.8 °C 29.96in /  1014.4hPa Calm   2.0mph /  3.2km/h 84% 0.00in /  0mm 9.0 W/m2
06:28 54.7 °F /  12.6 °C 49.6 °F /  9.8 °C 29.96in /  1014.4hPa East 2.9mph /  4.7km/h 3.0mph /  4.8km/h 83% 0.00in /  0mm 11.0 W/m2
06:34 54.7 °F /  12.6 °C 49.6 °F /  9.8 °C 29.96in /  1014.4hPa Calm   4.0mph /  6.4km/h 83% 0.00in /  0mm 12.0 W/m2
06:40 54.9 °F /  12.7 °C 49.8 °F /  9.9 °C 29.96in /  1014.4hPa SE 4.0mph /  6.4km/h 4.0mph /  6.4km/h 83% 0.00in /  0mm 12.0 W/m2
06:46 55.0 °F /  12.8 °C 50.0 °F /  10 °C 29.96in /  1014.4hPa East 2.9mph /  4.7km/h 3.0mph /  4.8km/h 83% 0.00in /  0mm 14.0 W/m2
06:52 55.2 °F /  12.9 °C 50.2 °F /  10.1 °C 29.96in /  1014.4hPa Calm   4.0mph /  6.4km/h 83% 0.00in /  0mm 16.0 W/m2
06:58 55.6 °F /  13.1 °C 50.5 °F /  10.3 °C 29.96in /  1014.4hPa East 0.9mph /  1.4km/h 4.0mph /  6.4km/h 83% 0.00in /  0mm 16.0 W/m2
07:04 55.8 °F /  13.2 °C 50.4 °F /  10.2 °C 29.96in /  1014.4hPa Calm   2.0mph /  3.2km/h 82% 0.00in /  0mm 18.0 W/m2
07:10 56.1 °F /  13.4 °C 50.7 °F /  10.4 °C 29.96in /  1014.4hPa Calm   3.0mph /  4.8km/h 82% 0.00in /  0mm 19.0 W/m2
07:16 56.5 °F /  13.6 °C 51.4 °F /  10.8 °C 29.97in /  1014.8hPa Calm   1.0mph /  1.6km/h 83% 0.00in /  0mm 19.0 W/m2
07:22 56.8 °F /  13.8 °C 51.1 °F /  10.6 °C 29.97in /  1014.8hPa NE 0.9mph /  1.4km/h 3.0mph /  4.8km/h 81% 0.00in /  0mm 21.0 W/m2
07:28 57.6 °F /  14.2 °C 51.8 °F /  11 °C 29.97in /  1014.8hPa Calm   1.0mph /  1.6km/h 81% 0.00in /  0mm 23.0 W/m2
07:34 58.1 °F /  14.5 °C 51.6 °F /  10.9 °C 29.97in /  1014.8hPa Calm   3.0mph /  4.8km/h 79% 0.00in /  0mm 28.0 W/m2
07:40 58.8 °F /  14.9 °C 52.0 °F /  11.1 °C 29.97in /  1014.8hPa Calm     78% 0.00in /  0mm 23.0 W/m2
07:46 59.5 °F /  15.3 °C 52.0 °F /  11.1 °C 29.97in /  1014.8hPa NE 0.9mph /  1.4km/h 4.0mph /  6.4km/h 76% 0.00in /  0mm 23.0 W/m2
07:52 61.0 °F /  16.1 °C 52.3 °F /  11.3 °C 29.97in /  1014.8hPa Calm   6.0mph /  9.7km/h 73% 0.00in /  0mm 25.0 W/m2
07:58 62.1 °F /  16.7 °C 51.8 °F /  11 °C 29.97in /  1014.8hPa ESE 2.0mph /  3.2km/h 4.0mph /  6.4km/h 69% 0.00in /  0mm 25.0 W/m2
08:06 63.7 °F /  17.6 °C 51.6 °F /  10.9 °C 29.97in /  1014.8hPa East 2.9mph /  4.7km/h 8.0mph /  12.9km/h 65% 0.00in /  0mm 26.0 W/m2
08:16 64.9 °F /  18.3 °C 51.6 °F /  10.9 °C 29.97in /  1014.8hPa NE 0.9mph /  1.4km/h 3.0mph /  4.8km/h 62% 0.00in /  0mm 26.0 W/m2
08:25 66.2 °F /  19 °C 50.9 °F /  10.5 °C 29.97in /  1014.8hPa NE 2.0mph /  3.2km/h 9.0mph /  14.5km/h 58% 0.00in /  0mm 28.0 W/m2
08:42 68.4 °F /  20.2 °C 50.5 °F /  10.3 °C 29.98in /  1015.1hPa NNE 2.9mph /  4.7km/h 11.0mph /  17.7km/h 53% 0.00in /  0mm 554.0 W/m2
08:49 69.3 °F /  20.7 °C 50.4 °F /  10.2 °C 29.98in /  1015.1hPa NE 2.0mph /  3.2km/h 11.0mph /  17.7km/h 51% 0.00in /  0mm 571.0 W/m2
08:54 70.0 °F /  21.1 °C 50.5 °F /  10.3 °C 29.98in /  1015.1hPa East 4.0mph /  6.4km/h 7.0mph /  11.3km/h 50% 0.00in /  0mm 591.0 W/m2
08:59 70.3 °F /  21.3 °C 50.9 °F /  10.5 °C 29.98in /  1015.1hPa East 2.9mph /  4.7km/h 8.0mph /  12.9km/h 50% 0.00in /  0mm 601.0 W/m2
09:06 70.9 °F /  21.6 °C 50.7 °F /  10.4 °C 29.98in /  1015.1hPa WNW 2.0mph /  3.2km/h 10.0mph /  16.1km/h 49% 0.00in /  0mm 624.0 W/m2
09:12 71.1 °F /  21.7 °C 50.9 °F /  10.5 °C 29.98in /  1015.1hPa NNE 4.0mph /  6.4km/h 8.0mph /  12.9km/h 49% 0.00in /  0mm 642.0 W/m2
09:21 71.8 °F /  22.1 °C 52.2 °F /  11.2 °C 29.98in /  1015.1hPa East 2.9mph /  4.7km/h 7.0mph /  11.3km/h 50% 0.00in /  0mm 663.0 W/m2
09:26 72.3 °F /  22.4 °C 50.9 °F /  10.5 °C 29.98in /  1015.1hPa NE 2.9mph /  4.7km/h 13.0mph /  20.9km/h 47% 0.00in /  0mm 679.0 W/m2
09:32 72.9 °F /  22.7 °C 51.4 °F /  10.8 °C 29.98in /  1015.1hPa East 4.9mph /  7.9km/h 11.0mph /  17.7km/h 47% 0.00in /  0mm 694.0 W/m2
09:38 72.9 °F /  22.7 °C 51.4 °F /  10.8 °C 29.98in /  1015.1hPa South 2.9mph /  4.7km/h 7.0mph /  11.3km/h 47% 0.00in /  0mm 708.0 W/m2
09:44 73.4 °F /  23 °C 52.0 °F /  11.1 °C 29.98in /  1015.1hPa ESE 0.9mph /  1.4km/h 7.0mph /  11.3km/h 47% 0.00in /  0mm 721.0 W/m2
09:50 73.8 °F /  23.2 °C 51.6 °F /  10.9 °C 29.98in /  1015.1hPa East 4.9mph /  7.9km/h 9.0mph /  14.5km/h 46% 0.00in /  0mm 731.0 W/m2
09:56 73.8 °F /  23.2 °C 51.6 °F /  10.9 °C 29.97in /  1014.8hPa ENE 4.0mph /  6.4km/h 11.0mph /  17.7km/h 46% 0.00in /  0mm 745.0 W/m2
10:02 74.1 °F /  23.4 °C 51.4 °F /  10.8 °C 29.98in /  1015.1hPa ESE 4.9mph /  7.9km/h 12.0mph /  19.3km/h 45% 0.00in /  0mm 758.0 W/m2
10:08 74.5 °F /  23.6 °C 51.8 °F /  11 °C 29.97in /  1014.8hPa ENE 4.0mph /  6.4km/h 11.0mph /  17.7km/h 45% 0.00in /  0mm 766.0 W/m2
10:14 74.7 °F /  23.7 °C 52.0 °F /  11.1 °C 29.97in /  1014.8hPa NE 2.0mph /  3.2km/h 9.0mph /  14.5km/h 45% 0.00in /  0mm 779.0 W/m2
10:20 75.2 °F /  24 °C 53.1 °F /  11.7 °C 29.96in /  1014.4hPa ENE 4.9mph /  7.9km/h 7.0mph /  11.3km/h 46% 0.00in /  0mm 788.0 W/m2
10:26 75.6 °F /  24.2 °C 52.7 °F /  11.5 °C 29.96in /  1014.4hPa NNE 6.0mph /  9.7km/h 10.0mph /  16.1km/h 45% 0.00in /  0mm 798.0 W/m2
10:32 75.7 °F /  24.3 °C 52.3 °F /  11.3 °C 29.96in /  1014.4hPa NE 10.1mph /  16.3km/h 13.0mph /  20.9km/h 44% 0.00in /  0mm 807.0 W/m2
10:38 75.9 °F /  24.4 °C 53.1 °F /  11.7 °C 29.96in /  1014.4hPa ENE 6.9mph /  11.1km/h 8.0mph /  12.9km/h 45% 0.00in /  0mm 810.0 W/m2
10:45 76.1 °F /  24.5 °C 52.0 °F /  11.1 °C 29.96in /  1014.4hPa North 0.9mph /  1.4km/h 7.0mph /  11.3km/h 43% 0.00in /  0mm 833.0 W/m2
10:51 76.3 °F /  24.6 °C 52.2 °F /  11.2 °C 29.96in /  1014.4hPa North 12.1mph /  19.5km/h 12.1mph /  19.5km/h 43% 0.00in /  0mm 854.0 W/m2
10:57 76.3 °F /  24.6 °C 52.2 °F /  11.2 °C 29.96in /  1014.4hPa NE 4.9mph /  7.9km/h 11.0mph /  17.7km/h 43% 0.00in /  0mm 888.0 W/m2
11:03 76.3 °F /  24.6 °C 52.2 °F /  11.2 °C 29.95in /  1014.1hPa NNW 2.0mph /  3.2km/h 9.0mph /  14.5km/h 43% 0.00in /  0mm 863.0 W/m2
11:09 76.5 °F /  24.7 °C 52.3 °F /  11.3 °C 29.95in /  1014.1hPa ESE 2.0mph /  3.2km/h 9.0mph /  14.5km/h 43% 0.00in /  0mm 874.0 W/m2
11:15 75.9 °F /  24.4 °C 52.5 °F /  11.4 °C 29.94in /  1013.8hPa ESE 6.0mph /  9.7km/h 10.0mph /  16.1km/h 44% 0.00in /  0mm 186.0 W/m2
11:21 75.7 °F /  24.3 °C 53.4 °F /  11.9 °C 29.94in /  1013.8hPa North 2.9mph /  4.7km/h 8.0mph /  12.9km/h 46% 0.00in /  0mm 949.0 W/m2
11:27 76.6 °F /  24.8 °C 53.1 °F /  11.7 °C 29.93in /  1013.4hPa NW 4.9mph /  7.9km/h 7.0mph /  11.3km/h 44% 0.00in /  0mm 905.0 W/m2
11:33 77.2 °F /  25.1 °C 51.6 °F /  10.9 °C 29.94in /  1013.8hPa ENE 4.9mph /  7.9km/h 5.0mph /  8km/h 41% 0.00in /  0mm 870.0 W/m2
11:39 77.4 °F /  25.2 °C 52.5 °F /  11.4 °C 29.93in /  1013.4hPa NW 4.0mph /  6.4km/h 8.0mph /  12.9km/h 42% 0.00in /  0mm 947.0 W/m2
11:45 77.2 °F /  25.1 °C 52.3 °F /  11.3 °C 29.93in /  1013.4hPa NNE 2.9mph /  4.7km/h 8.0mph /  12.9km/h 42% 0.00in /  0mm 919.0 W/m2
11:50 77.2 °F /  25.1 °C 52.9 °F /  11.6 °C 29.93in /  1013.4hPa NE 0.9mph /  1.4km/h 7.0mph /  11.3km/h 43% 0.00in /  0mm 919.0 W/m2
12:00 78.1 °F /  25.6 °C 52.5 °F /  11.4 °C 29.92in /  1013.1hPa NNW 4.9mph /  7.9km/h 8.0mph /  12.9km/h 41% 0.00in /  0mm 817.0 W/m2
12:06 78.3 °F /  25.7 °C 52.7 °F /  11.5 °C 29.92in /  1013.1hPa NNW 0.9mph /  1.4km/h 2.0mph /  3.2km/h 41% 0.00in /  0mm 165.0 W/m2
12:11 78.1 °F /  25.6 °C 53.1 °F /  11.7 °C 29.91in /  1012.8hPa Calm   6.0mph /  9.7km/h 42% 0.00in /  0mm 911.0 W/m2
12:16 78.1 °F /  25.6 °C 52.5 °F /  11.4 °C 29.91in /  1012.8hPa North 2.0mph /  3.2km/h 4.0mph /  6.4km/h 41% 0.00in /  0mm 881.0 W/m2
12:21 78.4 °F /  25.8 °C 51.4 °F /  10.8 °C 29.91in /  1012.8hPa Calm   4.0mph /  6.4km/h 39% 0.00in /  0mm 902.0 W/m2
12:28 79.0 °F /  26.1 °C 52.0 °F /  11.1 °C 29.91in /  1012.8hPa NW 2.0mph /  3.2km/h 5.0mph /  8km/h 39% 0.00in /  0mm 179.0 W/m2
12:34 78.8 °F /  26 °C 52.5 °F /  11.4 °C 29.91in /  1012.8hPa NNE 2.0mph /  3.2km/h 2.0mph /  3.2km/h 40% 0.00in /  0mm 1016.0 W/m2
12:42 78.4 °F /  25.8 °C 52.2 °F /  11.2 °C 29.91in /  1012.8hPa NNE 4.0mph /  6.4km/h 4.0mph /  6.4km/h 40% 0.00in /  0mm 216.0 W/m2
12:48 77.9 °F /  25.5 °C 52.3 °F /  11.3 °C 29.90in /  1012.4hPa Calm   4.0mph /  6.4km/h 41% 0.00in /  0mm 276.0 W/m2
12:54 77.7 °F /  25.4 °C 53.4 °F /  11.9 °C 29.90in /  1012.4hPa East 4.0mph /  6.4km/h 5.0mph /  8km/h 43% 0.00in /  0mm 981.0 W/m2
13:00 78.1 °F /  25.6 °C 52.5 °F /  11.4 °C 29.90in /  1012.4hPa ENE 2.0mph /  3.2km/h 7.0mph /  11.3km/h 41% 0.00in /  0mm 190.0 W/m2
13:06 78.1 °F /  25.6 °C 51.1 °F /  10.6 °C 29.89in /  1012.1hPa North 2.0mph /  3.2km/h 4.0mph /  6.4km/h 39% 0.00in /  0mm 1016.0 W/m2
13:12 78.4 °F /  25.8 °C 52.2 °F /  11.2 °C 29.89in /  1012.1hPa NE 0.9mph /  1.4km/h 4.0mph /  6.4km/h 40% 0.00in /  0mm 962.0 W/m2
13:18 79.0 °F /  26.1 °C 52.0 °F /  11.1 °C 29.89in /  1012.1hPa Calm   5.0mph /  8km/h 39% 0.00in /  0mm 179.0 W/m2
13:24 78.8 °F /  26 °C 53.1 °F /  11.7 °C 29.89in /  1012.1hPa NNE 2.0mph /  3.2km/h 6.0mph /  9.7km/h 41% 0.00in /  0mm 171.0 W/m2
13:31 78.3 °F /  25.7 °C 52.0 °F /  11.1 °C 29.88in /  1011.7hPa North 2.0mph /  3.2km/h 4.0mph /  6.4km/h 40% 0.00in /  0mm 139.0 W/m2
13:37 77.4 °F /  25.2 °C 51.8 °F /  11 °C 29.88in /  1011.7hPa NE 2.9mph /  4.7km/h 8.0mph /  12.9km/h 41% 0.00in /  0mm 111.0 W/m2
13:43 76.6 °F /  24.8 °C 52.5 °F /  11.4 °C 29.88in /  1011.7hPa NNE 0.9mph /  1.4km/h 4.0mph /  6.4km/h 43% 0.00in /  0mm 105.0 W/m2
13:49 76.3 °F /  24.6 °C 52.7 °F /  11.5 °C 29.88in /  1011.7hPa Calm   4.0mph /  6.4km/h 44% 0.00in /  0mm 127.0 W/m2
13:55 75.9 °F /  24.4 °C 50.5 °F /  10.3 °C 29.88in /  1011.7hPa Calm   5.0mph /  8km/h 41% 0.00in /  0mm 111.0 W/m2
14:01 75.6 °F /  24.2 °C 51.4 °F /  10.8 °C 29.88in /  1011.7hPa NE 4.0mph /  6.4km/h 5.0mph /  8km/h 43% 0.00in /  0mm 114.0 W/m2
14:07 75.4 °F /  24.1 °C 51.3 °F /  10.7 °C 29.87in /  1011.4hPa NE 0.9mph /  1.4km/h 3.0mph /  4.8km/h 43% 0.00in /  0mm 130.0 W/m2
14:13 75.4 °F /  24.1 °C 52.0 °F /  11.1 °C 29.87in /  1011.4hPa NE 0.9mph /  1.4km/h 1.0mph /  1.6km/h 44% 0.00in /  0mm 137.0 W/m2
14:19 75.2 °F /  24 °C 51.8 °F /  11 °C 29.87in /  1011.4hPa ENE 2.0mph /  3.2km/h 4.0mph /  6.4km/h 44% 0.00in /  0mm 144.0 W/m2
14:25 75.0 °F /  23.9 °C 52.9 °F /  11.6 °C 29.87in /  1011.4hPa ENE 0.9mph /  1.4km/h 5.0mph /  8km/h 46% 0.00in /  0mm 149.0 W/m2
14:31 75.0 °F /  23.9 °C 52.9 °F /  11.6 °C 29.86in /  1011.1hPa NE 0.9mph /  1.4km/h 4.0mph /  6.4km/h 46% 0.00in /  0mm 156.0 W/m2
14:37 74.8 °F /  23.8 °C 52.7 °F /  11.5 °C 29.86in /  1011.1hPa NNE 2.0mph /  3.2km/h 3.0mph /  4.8km/h 46% 0.00in /  0mm 169.0 W/m2
14:43 74.8 °F /  23.8 °C 52.7 °F /  11.5 °C 29.86in /  1011.1hPa Calm   3.0mph /  4.8km/h 46% 0.00in /  0mm 156.0 W/m2
14:49 74.8 °F /  23.8 °C 53.2 °F /  11.8 °C 29.86in /  1011.1hPa Calm   2.0mph /  3.2km/h 47% 0.00in /  0mm 156.0 W/m2
14:57 75.0 °F /  23.9 °C 53.4 °F /  11.9 °C 29.86in /  1011.1hPa Calm   1.0mph /  1.6km/h 47% 0.00in /  0mm 139.0 W/m2
15:03 75.0 °F /  23.9 °C 52.9 °F /  11.6 °C 29.86in /  1011.1hPa Calm   2.0mph /  3.2km/h 46% 0.00in /  0mm 135.0 W/m2
15:09 75.0 °F /  23.9 °C 52.2 °F /  11.2 °C 29.86in /  1011.1hPa Calm   2.0mph /  3.2km/h 45% 0.00in /  0mm 146.0 W/m2
15:15 75.0 °F /  23.9 °C 51.1 °F /  10.6 °C 29.85in /  1010.7hPa Calm   1.0mph /  1.6km/h 43% 0.00in /  0mm 487.0 W/m2
15:22 75.7 °F /  24.3 °C 51.6 °F /  10.9 °C 29.85in /  1010.7hPa Calm   1.0mph /  1.6km/h 43% 0.00in /  0mm 496.0 W/m2
15:28 76.8 °F /  24.9 °C 51.3 °F /  10.7 °C 29.85in /  1010.7hPa Calm   3.0mph /  4.8km/h 41% 0.00in /  0mm 547.0 W/m2
15:34 77.7 °F /  25.4 °C 50.7 °F /  10.4 °C 29.85in /  1010.7hPa Calm   2.0mph /  3.2km/h 39% 0.00in /  0mm 526.0 W/m2
15:40 78.4 °F /  25.8 °C 52.2 °F /  11.2 °C 29.85in /  1010.7hPa NE 2.9mph /  4.7km/h 6.0mph /  9.7km/h 40% 0.00in /  0mm 533.0 W/m2
15:46 79.0 °F /  26.1 °C 52.5 °F /  11.4 °C 29.85in /  1010.7hPa North 4.0mph /  6.4km/h 4.0mph /  6.4km/h 40% 0.00in /  0mm 508.0 W/m2
15:52 79.2 °F /  26.2 °C 51.4 °F /  10.8 °C 29.85in /  1010.7hPa ESE 2.0mph /  3.2km/h 4.0mph /  6.4km/h 38% 0.00in /  0mm 496.0 W/m2
15:58 79.2 °F /  26.2 °C 51.4 °F /  10.8 °C 29.85in /  1010.7hPa SE 2.0mph /  3.2km/h 5.0mph /  8km/h 38% 0.00in /  0mm 181.0 W/m2
16:04 78.8 °F /  26 °C 51.1 °F /  10.6 °C 29.85in /  1010.7hPa Calm   1.0mph /  1.6km/h 38% 0.00in /  0mm 137.0 W/m2
16:11 78.3 °F /  25.7 °C 51.3 °F /  10.7 °C 29.85in /  1010.7hPa Calm   2.0mph /  3.2km/h 39% 0.00in /  0mm 109.0 W/m2
16:17 77.7 °F /  25.4 °C 51.4 °F /  10.8 °C 29.85in /  1010.7hPa Calm   1.0mph /  1.6km/h 40% 0.00in /  0mm 84.0 W/m2
16:23 77.4 °F /  25.2 °C 50.5 °F /  10.3 °C 29.86in /  1011.1hPa East 0.9mph /  1.4km/h 5.0mph /  8km/h 39% 0.00in /  0mm 76.0 W/m2
16:29 76.5 °F /  24.7 °C 51.1 °F /  10.6 °C 29.86in /  1011.1hPa SSE 0.9mph /  1.4km/h 5.0mph /  8km/h 41% 0.00in /  0mm 33.0 W/m2
16:35 75.6 °F /  24.2 °C 51.4 °F /  10.8 °C 29.86in /  1011.1hPa Calm   4.0mph /  6.4km/h 43% 0.00in /  0mm 28.0 W/m2
16:41 74.8 °F /  23.8 °C 51.4 °F /  10.8 °C 29.86in /  1011.1hPa Calm   3.0mph /  4.8km/h 44% 0.00in /  0mm 30.0 W/m2
16:47 74.1 °F /  23.4 °C 50.9 °F /  10.5 °C 29.87in /  1011.4hPa Calm   3.0mph /  4.8km/h 44% 0.00in /  0mm 28.0 W/m2
16:54 73.8 °F /  23.2 °C 50.5 °F /  10.3 °C 29.86in /  1011.1hPa Calm   1.0mph /  1.6km/h 44% 0.00in /  0mm 21.0 W/m2
17:00 73.4 °F /  23 °C 50.7 °F /  10.4 °C 29.87in /  1011.4hPa ESE 0.9mph /  1.4km/h 2.0mph /  3.2km/h 45% 0.00in /  0mm 18.0 W/m2
17:06 73.0 °F /  22.8 °C 52.2 °F /  11.2 °C 29.87in /  1011.4hPa ESE 2.0mph /  3.2km/h 3.0mph /  4.8km/h 48% 0.00in /  0mm 12.0 W/m2
17:12 72.9 °F /  22.7 °C 51.4 °F /  10.8 °C 29.87in /  1011.4hPa SE 2.0mph /  3.2km/h 3.0mph /  4.8km/h 47% 0.00in /  0mm 9.0 W/m2
17:18 72.3 °F /  22.4 °C 51.4 °F /  10.8 °C 29.87in /  1011.4hPa SE 2.0mph /  3.2km/h 3.0mph /  4.8km/h 48% 0.00in /  0mm 7.0 W/m2
17:24 72.0 °F /  22.2 °C 51.8 °F /  11 °C 29.87in /  1011.4hPa Calm   1.0mph /  1.6km/h 49% 0.00in /  0mm 5.0 W/m2
17:30 71.4 °F /  21.9 °C 52.3 °F /  11.3 °C 29.88in /  1011.7hPa Calm   2.0mph /  3.2km/h 51% 0.00in /  0mm 0.0 W/m2
17:36 70.9 °F /  21.6 °C 52.9 °F /  11.6 °C 29.88in /  1011.7hPa Calm   2.0mph /  3.2km/h 53% 0.00in /  0mm 0.0 W/m2
17:43 70.3 °F /  21.3 °C 52.9 °F /  11.6 °C 29.88in /  1011.7hPa Calm   2.0mph /  3.2km/h 54% 0.00in /  0mm 0.0 W/m2
17:49 70.0 °F /  21.1 °C 52.0 °F /  11.1 °C 29.89in /  1012.1hPa ESE 6.9mph /  11.1km/h 8.0mph /  12.9km/h 53% 0.00in /  0mm 0.0 W/m2
17:55 69.3 °F /  20.7 °C 49.3 °F /  9.6 °C 29.89in /  1012.1hPa ESE 0.9mph /  1.4km/h 6.0mph /  9.7km/h 49% 0.00in /  0mm 0.0 W/m2
18:01 69.1 °F /  20.6 °C 48.6 °F /  9.2 °C 29.89in /  1012.1hPa Calm   7.0mph /  11.3km/h 48% 0.00in /  0mm 0.0 W/m2
18:07 68.9 °F /  20.5 °C 49.5 °F /  9.7 °C 29.89in /  1012.1hPa East 0.9mph /  1.4km/h 7.0mph /  11.3km/h 50% 0.00in /  0mm 0.0 W/m2
18:13 68.7 °F /  20.4 °C 49.8 °F /  9.9 °C 29.89in /  1012.1hPa East 4.0mph /  6.4km/h 8.0mph /  12.9km/h 51% 0.00in /  0mm 0.0 W/m2
18:19 68.5 °F /  20.3 °C 49.6 °F /  9.8 °C 29.89in /  1012.1hPa Calm   5.0mph /  8km/h 51% 0.00in /  0mm 0.0 W/m2
18:25 68.4 °F /  20.2 °C 49.5 °F /  9.7 °C 29.89in /  1012.1hPa Calm   4.0mph /  6.4km/h 51% 0.00in /  0mm 0.0 W/m2
18:32 68.2 °F /  20.1 °C 49.3 °F /  9.6 °C 29.90in /  1012.4hPa ENE 0.9mph /  1.4km/h 2.0mph /  3.2km/h 51% 0.00in /  0mm 0.0 W/m2
18:38 68.0 °F /  20 °C 49.6 °F /  9.8 °C 29.90in /  1012.4hPa East 0.9mph /  1.4km/h 2.0mph /  3.2km/h 52% 0.00in /  0mm 0.0 W/m2
18:44 67.8 °F /  19.9 °C 49.6 °F /  9.8 °C 29.90in /  1012.4hPa East 0.9mph /  1.4km/h 2.0mph /  3.2km/h 52% 0.00in /  0mm 0.0 W/m2
18:50 67.6 °F /  19.8 °C 49.5 °F /  9.7 °C 29.90in /  1012.4hPa Calm     52% 0.00in /  0mm 0.0 W/m2
18:56 67.5 °F /  19.7 °C 49.8 °F /  9.9 °C 29.91in /  1012.8hPa West 0.9mph /  1.4km/h 2.0mph /  3.2km/h 53% 0.00in /  0mm 0.0 W/m2
19:02 67.5 °F /  19.7 °C 50.7 °F /  10.4 °C 29.91in /  1012.8hPa Calm   1.0mph /  1.6km/h 55% 0.00in /  0mm 0.0 W/m2
19:08 67.5 °F /  19.7 °C 51.3 °F /  10.7 °C 29.91in /  1012.8hPa Calm   1.0mph /  1.6km/h 56% 0.00in /  0mm 0.0 W/m2
19:14 67.3 °F /  19.6 °C 51.1 °F /  10.6 °C 29.91in /  1012.8hPa Calm   3.0mph /  4.8km/h 56% 0.00in /  0mm 0.0 W/m2
19:21 67.3 °F /  19.6 °C 51.4 °F /  10.8 °C 29.91in /  1012.8hPa Calm   1.0mph /  1.6km/h 57% 0.00in /  0mm 0.0 W/m2
19:27 66.9 °F /  19.4 °C 51.3 °F /  10.7 °C 29.91in /  1012.8hPa Calm   1.0mph /  1.6km/h 57% 0.00in /  0mm 0.0 W/m2
19:33 66.7 °F /  19.3 °C 51.1 °F /  10.6 °C 29.92in /  1013.1hPa Calm     57% 0.00in /  0mm 0.0 W/m2
19:39 66.7 °F /  19.3 °C 51.4 °F /  10.8 °C 29.92in /  1013.1hPa Calm     58% 0.00in /  0mm 0.0 W/m2
19:45 66.6 °F /  19.2 °C 51.3 °F /  10.7 °C 29.92in /  1013.1hPa Calm     58% 0.00in /  0mm 0.0 W/m2
19:51 66.4 °F /  19.1 °C 51.1 °F /  10.6 °C 29.92in /  1013.1hPa Calm     58% 0.00in /  0mm 0.0 W/m2
19:57 66.0 °F /  18.9 °C 51.3 °F /  10.7 °C 29.92in /  1013.1hPa Calm     59% 0.00in /  0mm 0.0 W/m2
20:03 65.8 °F /  18.8 °C 51.1 °F /  10.6 °C 29.92in /  1013.1hPa Calm     59% 0.00in /  0mm 0.0 W/m2
20:10 65.7 °F /  18.7 °C 50.9 °F /  10.5 °C 29.92in /  1013.1hPa WSW 0.9mph /  1.4km/h 1.0mph /  1.6km/h 59% 0.00in /  0mm 0.0 W/m2
20:16 65.7 °F /  18.7 °C 50.9 °F /  10.5 °C 29.92in /  1013.1hPa Calm     59% 0.00in /  0mm 0.0 W/m2
20:22 65.5 °F /  18.6 °C 51.3 °F /  10.7 °C 29.92in /  1013.1hPa Calm     60% 0.00in /  0mm 0.0 W/m2
20:28 65.5 °F /  18.6 °C 52.2 °F /  11.2 °C 29.93in /  1013.4hPa Calm     62% 0.00in /  0mm 0.0 W/m2
20:34 65.1 °F /  18.4 °C 52.7 °F /  11.5 °C 29.92in /  1013.1hPa Calm     64% 0.00in /  0mm 0.0 W/m2
20:40 65.1 °F /  18.4 °C 52.2 °F /  11.2 °C 29.92in /  1013.1hPa Calm     63% 0.00in /  0mm 0.0 W/m2
20:47 64.9 °F /  18.3 °C 52.5 °F /  11.4 °C 29.93in /  1013.4hPa Calm   1.0mph /  1.6km/h 64% 0.00in /  0mm 0.0 W/m2
20:53 64.8 °F /  18.2 °C 52.7 °F /  11.5 °C 29.93in /  1013.4hPa South 0.9mph /  1.4km/h 1.0mph /  1.6km/h 65% 0.00in /  0mm 0.0 W/m2
20:59 64.8 °F /  18.2 °C 51.4 °F /  10.8 °C 29.93in /  1013.4hPa ESE 2.9mph /  4.7km/h 5.0mph /  8km/h 62% 0.00in /  0mm 0.0 W/m2
21:05 64.8 °F /  18.2 °C 51.4 °F /  10.8 °C 29.93in /  1013.4hPa Calm   2.0mph /  3.2km/h 62% 0.00in /  0mm 0.0 W/m2
21:11 64.8 °F /  18.2 °C 51.1 °F /  10.6 °C 29.93in /  1013.4hPa Calm   1.0mph /  1.6km/h 61% 0.00in /  0mm 0.0 W/m2
21:17 64.9 °F /  18.3 °C 50.7 °F /  10.4 °C 29.92in /  1013.1hPa Calm   1.0mph /  1.6km/h 60% 0.00in /  0mm 0.0 W/m2
21:23 64.9 °F /  18.3 °C 51.6 °F /  10.9 °C 29.93in /  1013.4hPa Calm   2.0mph /  3.2km/h 62% 0.00in /  0mm 0.0 W/m2
21:30 64.9 °F /  18.3 °C 51.6 °F /  10.9 °C 29.92in /  1013.1hPa Calm   1.0mph /  1.6km/h 62% 0.00in /  0mm 0.0 W/m2
21:36 64.9 °F /  18.3 °C 52.0 °F /  11.1 °C 29.92in /  1013.1hPa ENE 2.9mph /  4.7km/h 3.0mph /  4.8km/h 63% 0.00in /  0mm 0.0 W/m2
21:42 64.9 °F /  18.3 °C 52.5 °F /  11.4 °C 29.92in /  1013.1hPa Calm   1.0mph /  1.6km/h 64% 0.00in /  0mm 0.0 W/m2
21:48 64.8 °F /  18.2 °C 52.3 °F /  11.3 °C 29.93in /  1013.4hPa Calm   2.0mph /  3.2km/h 64% 0.00in /  0mm 0.0 W/m2
21:54 64.6 °F /  18.1 °C 52.9 °F /  11.6 °C 29.93in /  1013.4hPa Calm   1.0mph /  1.6km/h 66% 0.00in /  0mm 0.0 W/m2
22:00 64.4 °F /  18 °C 52.9 °F /  11.6 °C 29.93in /  1013.4hPa Calm   2.0mph /  3.2km/h 66% 0.00in /  0mm 0.0 W/m2
22:06 64.2 °F /  17.9 °C 52.7 °F /  11.5 °C 29.93in /  1013.4hPa NNE 0.9mph /  1.4km/h 3.0mph /  4.8km/h 66% 0.00in /  0mm 0.0 W/m2
22:13 64.0 °F /  17.8 °C 52.0 °F /  11.1 °C 29.93in /  1013.4hPa NNW 0.9mph /  1.4km/h 4.0mph /  6.4km/h 65% 0.00in /  0mm 0.0 W/m2
22:19 64.0 °F /  17.8 °C 52.5 °F /  11.4 °C 29.93in /  1013.4hPa NNE 2.0mph /  3.2km/h 5.0mph /  8km/h 66% 0.00in /  0mm 0.0 W/m2
22:25 64.0 °F /  17.8 °C 52.5 °F /  11.4 °C 29.93in /  1013.4hPa Calm   1.0mph /  1.6km/h 66% 0.00in /  0mm 0.0 W/m2
22:31 63.9 °F /  17.7 °C 52.7 °F /  11.5 °C 29.92in /  1013.1hPa Calm   2.0mph /  3.2km/h 67% 0.00in /  0mm 0.0 W/m2
22:37 63.9 °F /  17.7 °C 52.7 °F /  11.5 °C 29.92in /  1013.1hPa ESE 0.9mph /  1.4km/h 2.0mph /  3.2km/h 67% 0.00in /  0mm 0.0 W/m2
22:43 63.7 °F /  17.6 °C 52.9 °F /  11.6 °C 29.92in /  1013.1hPa Calm   3.0mph /  4.8km/h 68% 0.00in /  0mm 0.0 W/m2
22:50 63.3 °F /  17.4 °C 52.2 °F /  11.2 °C 29.92in /  1013.1hPa Calm   1.0mph /  1.6km/h 67% 0.00in /  0mm 0.0 W/m2
22:56 63.1 °F /  17.3 °C 52.0 °F /  11.1 °C 29.91in /  1012.8hPa Calm   2.0mph /  3.2km/h 67% 0.00in /  0mm 0.0 W/m2
23:02 63.1 °F /  17.3 °C 52.3 °F /  11.3 °C 29.91in /  1012.8hPa Calm   1.0mph /  1.6km/h 68% 0.00in /  0mm 0.0 W/m2
23:08 63.0 °F /  17.2 °C 52.2 °F /  11.2 °C 29.91in /  1012.8hPa Calm   1.0mph /  1.6km/h 68% 0.00in /  0mm 0.0 W/m2
23:14 62.8 °F /  17.1 °C 52.0 °F /  11.1 °C 29.91in /  1012.8hPa Calm     68% 0.00in /  0mm 0.0 W/m2
23:20 62.8 °F /  17.1 °C 52.5 °F /  11.4 °C 29.91in /  1012.8hPa Calm     69% 0.00in /  0mm 0.0 W/m2
23:27 62.4 °F /  16.9 °C 52.5 °F /  11.4 °C 29.91in /  1012.8hPa Calm     70% 0.00in /  0mm 0.0 W/m2
23:33 62.2 °F /  16.8 °C 52.3 °F /  11.3 °C 29.91in /  1012.8hPa Calm     70% 0.00in /  0mm 0.0 W/m2
23:39 62.2 °F /  16.8 °C 52.3 °F /  11.3 °C 29.91in /  1012.8hPa Calm   1.0mph /  1.6km/h 70% 0.00in /  0mm 0.0 W/m2
23:45 62.2 °F /  16.8 °C 52.3 °F /  11.3 °C 29.91in /  1012.8hPa Calm     70% 0.00in /  0mm 0.0 W/m2
23:51 62.2 °F /  16.8 °C 52.7 °F /  11.5 °C 29.91in /  1012.8hPa Calm   1.0mph /  1.6km/h 71% 0.00in /  0mm 0.0 W/m2
23:57 62.2 °F /  16.8 °C 53.1 °F /  11.7 °C 29.91in /  1012.8hPa NE 0.9mph /  1.4km/h 1.0mph /  1.6km/h 72% 0.00in /  0mm 0.0 W/m2
Olympia, Windhoek, Namibia
Compliments of Weather Underground - 3 mb